createdAt,value
2016-08-09T00:00:28.520Z,958.38
2016-08-09T00:01:30.771Z,958.33
2016-08-09T00:02:24.263Z,958.40
2016-08-09T00:03:30.416Z,958.36
2016-08-09T00:04:26.989Z,958.36
2016-08-09T00:05:27.454Z,958.39
2016-08-09T00:06:16.881Z,958.42
2016-08-09T00:07:27.573Z,958.41
2016-08-09T00:08:42.818Z,958.39
2016-08-09T00:09:32.299Z,958.39
2016-08-09T00:10:13.900Z,958.34
2016-08-09T00:11:33.051Z,958.38
2016-08-09T00:12:42.566Z,958.38
2016-08-09T00:13:43.330Z,958.38
2016-08-09T00:14:17.865Z,958.40
2016-08-09T00:15:35.810Z,958.37
2016-08-09T00:16:27.074Z,958.38
2016-08-09T00:17:15.328Z,958.35
2016-08-09T00:18:48.014Z,958.34
2016-08-09T00:19:36.849Z,958.32
2016-08-09T00:20:40.397Z,958.24
2016-08-09T00:21:26.860Z,958.25
2016-08-09T00:22:30.862Z,958.22
2016-08-09T00:23:33.950Z,958.20
2016-08-09T00:24:43.593Z,958.22
2016-08-09T00:25:30.159Z,958.25
2016-08-09T00:26:15.676Z,958.25
2016-08-09T00:27:38.603Z,958.25
2016-08-09T00:28:38.610Z,958.27
2016-08-09T00:29:37.391Z,958.26
2016-08-09T00:30:25.793Z,958.29
2016-08-09T00:31:26.828Z,958.28
2016-08-09T00:32:38.064Z,958.35
2016-08-09T00:33:38.606Z,958.34
2016-08-09T00:34:32.571Z,958.38
2016-08-09T00:35:37.351Z,958.34
2016-08-09T00:36:34.604Z,958.33
2016-08-09T00:37:26.967Z,958.35
2016-08-09T00:38:38.256Z,958.28
2016-08-09T00:39:34.617Z,958.30
2016-08-09T00:40:27.477Z,958.32
2016-08-09T00:41:27.511Z,958.33
2016-08-09T00:42:14.451Z,958.32
2016-08-09T00:43:32.806Z,958.30
2016-08-09T00:44:41.573Z,958.36
2016-08-09T00:45:42.271Z,958.30
2016-08-09T00:46:38.454Z,958.29
2016-08-09T00:47:32.183Z,958.30
2016-08-09T00:48:36.877Z,958.30
2016-08-09T00:49:32.888Z,958.31
2016-08-09T00:50:31.026Z,958.32
2016-08-09T00:51:31.326Z,958.28
2016-08-09T00:52:37.617Z,958.27
2016-08-09T00:53:38.472Z,958.25
2016-08-09T00:54:32.878Z,958.24
2016-08-09T00:55:37.397Z,958.20
2016-08-09T00:56:26.913Z,958.16
2016-08-09T00:57:32.252Z,958.13
2016-08-09T00:58:32.076Z,958.09
2016-08-09T00:59:29.982Z,958.08
2016-08-09T01:00:36.145Z,958.02
2016-08-09T01:01:21.397Z,958.03
2016-08-09T01:02:46.444Z,957.92
2016-08-09T01:03:39.274Z,957.99
2016-08-09T01:04:36.008Z,958.00
2016-08-09T01:05:29.359Z,958.00
2016-08-09T01:06:19.959Z,958.00
2016-08-09T01:07:38.738Z,957.97
2016-08-09T01:08:16.686Z,957.98
2016-08-09T01:09:32.447Z,958.06
2016-08-09T01:10:33.854Z,958.03
2016-08-09T01:11:17.661Z,958.10
2016-08-09T01:12:33.885Z,958.05
2016-08-09T01:13:32.708Z,958.08
2016-08-09T01:14:40.307Z,958.17
2016-08-09T01:15:18.793Z,958.14
2016-08-09T01:16:41.114Z,958.15
2016-08-09T01:17:41.793Z,958.16
2016-08-09T01:18:28.252Z,958.11
2016-08-09T01:19:31.708Z,958.15
2016-08-09T01:20:32.537Z,958.16
2016-08-09T01:21:37.771Z,958.16
2016-08-09T01:22:37.412Z,958.16
2016-08-09T01:23:42.225Z,958.22
2016-08-09T01:24:19.881Z,958.16
2016-08-09T01:25:26.126Z,958.13
2016-08-09T01:26:37.318Z,958.11
2016-08-09T01:27:41.425Z,958.09
2016-08-09T01:28:47.793Z,958.06
2016-08-09T01:29:37.900Z,958.10
2016-08-09T01:30:34.377Z,958.06
2016-08-09T01:31:31.681Z,958.08
2016-08-09T01:32:43.305Z,958.07
2016-08-09T01:33:38.313Z,958.10
2016-08-09T01:34:15.109Z,958.09
2016-08-09T01:35:32.962Z,958.09
2016-08-09T01:36:25.664Z,958.06
2016-08-09T01:37:16.358Z,958.04
2016-08-09T01:39:01.000Z,958.04
2016-08-09T01:39:38.527Z,958.05
2016-08-09T01:40:33.352Z,958.05
2016-08-09T01:41:34.744Z,958.07
2016-08-09T01:42:40.703Z,958.08
2016-08-09T01:43:33.161Z,958.02
2016-08-09T01:44:27.083Z,957.99
2016-08-09T01:45:25.950Z,958.00
2016-08-09T01:46:36.263Z,957.92
2016-08-09T01:47:31.134Z,958.01
2016-08-09T01:48:40.939Z,958.03
2016-08-09T01:49:13.738Z,958.03
2016-08-09T01:50:30.499Z,958.03
2016-08-09T01:51:30.819Z,958.02
2016-08-09T01:52:44.741Z,958.02
2016-08-09T01:53:32.727Z,957.99
2016-08-09T01:54:36.822Z,957.95
2016-08-09T01:55:31.493Z,957.95
2016-08-09T01:56:25.144Z,957.89
2016-08-09T01:57:14.440Z,957.88
2016-08-09T01:58:40.964Z,957.86
2016-08-09T01:59:32.395Z,957.86
2016-08-09T02:00:37.188Z,957.82
2016-08-09T02:01:22.421Z,957.80
2016-08-09T02:02:46.248Z,957.79
2016-08-09T02:03:32.502Z,957.74
2016-08-09T02:04:18.747Z,957.75
2016-08-09T02:05:37.217Z,957.74
2016-08-09T02:06:57.199Z,957.70
2016-08-09T02:07:36.480Z,957.63
2016-08-09T02:08:37.299Z,957.65
2016-08-09T02:09:34.897Z,957.60
2016-08-09T02:10:38.355Z,957.59
2016-08-09T02:11:46.460Z,957.61
2016-08-09T02:12:24.012Z,957.61
2016-08-09T02:13:33.863Z,957.64
2016-08-09T02:14:28.671Z,957.63
2016-08-09T02:15:32.760Z,957.65
2016-08-09T02:16:27.059Z,957.66
2016-08-09T02:18:25.688Z,957.64
2016-08-09T02:19:37.217Z,957.63
2016-08-09T02:20:39.073Z,957.54
2016-08-09T02:21:27.814Z,957.59
2016-08-09T02:22:40.880Z,957.53
2016-08-09T02:23:44.883Z,957.53
2016-08-09T02:24:36.064Z,957.55
2016-08-09T02:25:54.420Z,957.55
2016-08-09T02:26:36.283Z,957.55
2016-08-09T02:27:42.368Z,957.56
2016-08-09T02:28:43.298Z,957.56
2016-08-09T02:29:35.809Z,957.60
2016-08-09T02:30:38.683Z,957.62
2016-08-09T02:31:32.471Z,957.61
2016-08-09T02:32:32.151Z,957.62
2016-08-09T02:33:42.725Z,957.59
2016-08-09T02:34:28.274Z,957.58
2016-08-09T02:35:37.993Z,957.60
2016-08-09T02:36:42.895Z,957.57
2016-08-09T02:37:16.140Z,957.59
2016-08-09T02:38:30.480Z,957.56
2016-08-09T02:39:31.921Z,957.56
2016-08-09T02:40:32.460Z,957.58
2016-08-09T02:41:27.131Z,957.58
2016-08-09T02:42:43.570Z,957.59
2016-08-09T02:43:31.289Z,957.59
2016-08-09T02:44:37.605Z,957.59
2016-08-09T02:45:25.688Z,957.61
2016-08-09T02:46:32.689Z,957.63
2016-08-09T02:47:42.767Z,957.61
2016-08-09T02:48:39.019Z,957.67
2016-08-09T02:49:27.354Z,957.63
2016-08-09T02:50:37.539Z,957.68
2016-08-09T02:51:46.471Z,957.69
2016-08-09T02:52:38.032Z,957.69
2016-08-09T02:53:37.582Z,957.69
2016-08-09T02:54:35.773Z,957.68
2016-08-09T02:55:13.676Z,957.73
2016-08-09T02:56:28.037Z,957.69
2016-08-09T02:57:44.134Z,957.72
2016-08-09T02:58:38.767Z,957.73
2016-08-09T02:59:37.725Z,957.74
2016-08-09T03:00:32.678Z,957.75
2016-08-09T03:01:32.765Z,957.78
2016-08-09T03:02:15.004Z,957.78
2016-08-09T03:03:38.517Z,957.79
2016-08-09T03:04:36.717Z,957.79
2016-08-09T03:05:37.117Z,957.84
2016-08-09T03:06:36.302Z,957.84
2016-08-09T03:07:43.610Z,957.82
2016-08-09T03:08:39.119Z,957.83
2016-08-09T03:09:28.871Z,957.79
2016-08-09T03:10:31.264Z,957.84
2016-08-09T03:11:32.450Z,957.87
2016-08-09T03:12:31.822Z,957.88
2016-08-09T03:13:47.510Z,957.90
2016-08-09T03:14:36.907Z,957.88
2016-08-09T03:15:14.427Z,957.85
2016-08-09T03:16:13.106Z,957.83
2016-08-09T03:17:41.627Z,957.78
2016-08-09T03:18:26.687Z,957.78
2016-08-09T03:19:38.999Z,957.80
2016-08-09T03:20:33.650Z,957.78
2016-08-09T03:21:25.770Z,957.77
2016-08-09T03:22:13.377Z,957.75
2016-08-09T03:23:14.326Z,957.81
2016-08-09T03:24:39.644Z,957.83
2016-08-09T03:25:36.541Z,957.85
2016-08-09T03:26:30.091Z,957.85
2016-08-09T03:27:13.380Z,957.86
2016-08-09T03:28:37.240Z,957.90
2016-08-09T03:29:20.730Z,957.89
2016-08-09T03:30:39.047Z,957.92
2016-08-09T03:31:30.428Z,957.90
2016-08-09T03:33:32.690Z,958.02
2016-08-09T03:34:45.926Z,958.00
2016-08-09T03:35:33.511Z,957.97
2016-08-09T03:36:33.040Z,957.98
2016-08-09T03:37:37.838Z,957.92
2016-08-09T03:38:21.186Z,957.94
2016-08-09T03:39:40.514Z,957.93
2016-08-09T03:40:16.013Z,957.93
2016-08-09T03:41:38.989Z,957.94
2016-08-09T03:42:39.437Z,957.91
2016-08-09T03:43:32.218Z,957.89
2016-08-09T03:44:35.687Z,957.82
2016-08-09T03:45:32.122Z,957.84
2016-08-09T03:46:38.740Z,957.86
2016-08-09T03:48:36.445Z,957.88
2016-08-09T03:49:38.187Z,957.85
2016-08-09T03:50:27.157Z,957.93
2016-08-09T03:51:31.610Z,958.01
2016-08-09T03:52:23.690Z,958.06
2016-08-09T03:53:20.323Z,958.05
2016-08-09T03:54:37.960Z,958.17
2016-08-09T03:55:30.651Z,958.31
2016-08-09T03:56:31.700Z,958.40
2016-08-09T03:57:21.601Z,958.51
2016-08-09T03:58:32.608Z,958.63
2016-08-09T03:59:33.974Z,958.65
2016-08-09T04:00:36.148Z,958.61
2016-08-09T04:01:41.935Z,958.56
2016-08-09T04:03:27.035Z,958.47
2016-08-09T04:04:29.510Z,958.49
2016-08-09T04:05:39.053Z,958.43
2016-08-09T04:06:30.956Z,958.44
2016-08-09T04:07:34.533Z,958.41
2016-08-09T04:08:38.987Z,958.40
2016-08-09T04:09:34.751Z,958.35
2016-08-09T04:10:23.696Z,958.36
2016-08-09T04:11:17.470Z,958.34
2016-08-09T04:12:24.096Z,958.34
2016-08-09T04:13:32.206Z,958.32
2016-08-09T04:14:32.982Z,958.32
2016-08-09T04:15:37.716Z,958.37
2016-08-09T04:16:32.707Z,958.37
2016-08-09T04:17:25.987Z,958.35
2016-08-09T04:18:34.389Z,958.31
2016-08-09T04:19:32.461Z,958.33
2016-08-09T04:20:49.016Z,958.31
2016-08-09T04:21:17.988Z,958.21
2016-08-09T04:22:43.105Z,958.21
2016-08-09T04:23:38.416Z,958.24
2016-08-09T04:24:45.546Z,958.19
2016-08-09T04:25:46.986Z,958.16
2016-08-09T04:26:32.362Z,958.10
2016-08-09T04:27:45.987Z,958.05
2016-08-09T04:28:44.291Z,957.97
2016-08-09T04:29:35.074Z,957.97
2016-08-09T04:30:31.443Z,957.97
2016-08-09T04:31:15.822Z,957.93
2016-08-09T04:32:33.446Z,957.80
2016-08-09T04:33:27.866Z,957.65
2016-08-09T04:34:36.346Z,957.59
2016-08-09T04:35:35.264Z,957.52
2016-08-09T04:36:39.063Z,957.49
2016-08-09T04:37:28.360Z,957.43
2016-08-09T04:38:31.771Z,957.38
2016-08-09T04:39:46.903Z,957.39
2016-08-09T04:40:40.128Z,957.37
2016-08-09T04:41:32.163Z,957.41
2016-08-09T04:42:20.562Z,957.49
2016-08-09T04:43:30.278Z,957.60
2016-08-09T04:44:21.696Z,957.67
2016-08-09T04:45:34.023Z,957.72
2016-08-09T04:46:33.559Z,957.75
2016-08-09T04:47:30.460Z,957.73
2016-08-09T04:48:38.680Z,957.74
2016-08-09T04:49:38.854Z,957.73
2016-08-09T04:50:32.946Z,957.71
2016-08-09T04:51:24.268Z,957.79
2016-08-09T04:52:30.976Z,957.81
2016-08-09T04:53:26.659Z,957.75
2016-08-09T04:54:27.895Z,957.72
2016-08-09T04:55:38.985Z,957.63
2016-08-09T04:56:38.048Z,957.67
2016-08-09T04:57:15.618Z,957.66
2016-08-09T04:58:30.499Z,957.75
2016-08-09T04:59:37.909Z,957.84
2016-08-09T05:00:19.505Z,957.88
2016-08-09T05:01:37.182Z,957.86
2016-08-09T05:02:32.115Z,957.87
2016-08-09T05:03:33.562Z,957.91
2016-08-09T05:04:38.338Z,957.92
2016-08-09T05:05:44.546Z,957.99
2016-08-09T05:06:44.420Z,957.99
2016-08-09T05:07:43.665Z,957.95
2016-08-09T05:08:44.892Z,957.94
2016-08-09T05:09:38.757Z,957.96
2016-08-09T05:10:37.243Z,957.94
2016-08-09T05:11:40.096Z,957.91
2016-08-09T05:12:44.456Z,957.84
2016-08-09T05:13:46.959Z,957.81
2016-08-09T05:14:38.948Z,957.82
2016-08-09T05:15:30.554Z,957.75
2016-08-09T05:16:32.966Z,957.83
2016-08-09T05:17:38.795Z,957.84
2016-08-09T05:18:34.651Z,957.86
2016-08-09T05:19:37.385Z,957.92
2016-08-09T05:20:39.026Z,957.90
2016-08-09T05:21:39.447Z,957.92
2016-08-09T05:22:37.165Z,957.94
2016-08-09T05:23:42.164Z,957.93
2016-08-09T05:24:38.631Z,957.96
2016-08-09T05:25:42.903Z,957.95
2016-08-09T05:26:32.857Z,957.96
2016-08-09T05:27:33.240Z,957.97
2016-08-09T05:28:37.043Z,958.00
2016-08-09T05:29:15.904Z,958.01
2016-08-09T05:30:36.228Z,958.10
2016-08-09T05:31:38.555Z,958.18
2016-08-09T05:32:29.375Z,958.24
2016-08-09T05:33:37.390Z,958.25
2016-08-09T05:34:29.285Z,958.30
2016-08-09T05:35:23.044Z,958.34
2016-08-09T05:36:31.303Z,958.38
2016-08-09T05:37:38.103Z,958.36
2016-08-09T05:38:37.400Z,958.39
2016-08-09T05:39:26.688Z,958.47
2016-08-09T05:40:22.665Z,958.48
2016-08-09T05:41:32.753Z,958.49
2016-08-09T05:42:30.400Z,958.54
2016-08-09T05:43:33.059Z,958.56
2016-08-09T05:44:33.028Z,958.61
2016-08-09T05:45:32.707Z,958.62
2016-08-09T05:46:38.495Z,958.66
2016-08-09T05:47:27.445Z,958.64
2016-08-09T05:48:32.586Z,958.61
2016-08-09T05:49:40.326Z,958.60
2016-08-09T05:50:34.878Z,958.58
2016-08-09T05:51:33.144Z,958.57
2016-08-09T05:52:32.008Z,958.53
2016-08-09T05:53:32.257Z,958.42
2016-08-09T05:54:27.548Z,958.41
2016-08-09T05:55:27.267Z,958.37
2016-08-09T05:56:38.865Z,958.35
2016-08-09T05:57:38.398Z,958.32
2016-08-09T05:58:31.159Z,958.38
2016-08-09T05:59:30.705Z,958.34
2016-08-09T06:00:33.928Z,958.24
2016-08-09T06:01:31.414Z,958.16
2016-08-09T06:02:26.919Z,958.21
2016-08-09T06:03:35.240Z,958.30
2016-08-09T06:04:18.074Z,958.32
2016-08-09T06:05:40.453Z,958.40
2016-08-09T06:06:20.755Z,958.44
2016-08-09T06:07:32.375Z,958.43
2016-08-09T06:08:33.859Z,958.40
2016-08-09T06:09:33.613Z,958.33
2016-08-09T06:10:28.086Z,958.33
2016-08-09T06:11:25.759Z,958.40
2016-08-09T06:12:19.521Z,958.47
2016-08-09T06:13:29.331Z,958.56
2016-08-09T06:14:39.697Z,958.53
2016-08-09T06:15:35.176Z,958.60
2016-08-09T06:16:24.361Z,958.61
2016-08-09T06:17:36.059Z,958.64
2016-08-09T06:18:31.559Z,958.66
2016-08-09T06:19:27.706Z,958.67
2016-08-09T06:20:36.681Z,958.66
2016-08-09T06:21:32.463Z,958.69
2016-08-09T06:22:15.596Z,958.75
2016-08-09T06:23:39.344Z,958.76
2016-08-09T06:24:37.857Z,958.84
2016-08-09T06:25:36.328Z,958.89
2016-08-09T06:26:23.725Z,958.92
2016-08-09T06:27:33.040Z,958.90
2016-08-09T06:28:39.640Z,958.91
2016-08-09T06:29:37.549Z,958.85
2016-08-09T06:30:36.897Z,958.76
2016-08-09T06:31:15.548Z,958.77
2016-08-09T06:32:33.365Z,958.72
2016-08-09T06:34:26.537Z,958.64
2016-08-09T06:35:26.708Z,958.69
2016-08-09T06:36:43.193Z,958.70
2016-08-09T06:37:39.208Z,958.72
2016-08-09T06:38:38.254Z,958.73
2016-08-09T06:39:44.231Z,958.74
2016-08-09T06:40:44.156Z,958.76
2016-08-09T06:41:25.330Z,958.76
2016-08-09T06:42:41.709Z,958.73
2016-08-09T06:43:47.112Z,958.73
2016-08-09T06:44:37.459Z,958.66
2016-08-09T06:45:37.786Z,958.62
2016-08-09T06:46:13.988Z,958.64
2016-08-09T06:47:40.201Z,958.59
2016-08-09T06:49:27.223Z,958.52
2016-08-09T06:50:44.699Z,958.46
2016-08-09T06:51:31.948Z,958.45
2016-08-09T06:52:39.907Z,958.40
2016-08-09T06:53:38.846Z,958.32
2016-08-09T06:54:38.951Z,958.23
2016-08-09T06:55:11.784Z,958.22
2016-08-09T06:56:43.948Z,958.14
2016-08-09T06:57:33.650Z,958.14
2016-08-09T06:58:13.421Z,958.08
2016-08-09T06:59:37.790Z,958.13
2016-08-09T07:00:12.753Z,958.11
2016-08-09T07:01:41.822Z,958.13
2016-08-09T07:02:32.397Z,958.15
2016-08-09T07:04:40.512Z,958.17
2016-08-09T07:05:18.475Z,958.18
2016-08-09T07:06:11.380Z,958.18
2016-08-09T07:07:27.402Z,958.26
2016-08-09T07:08:30.864Z,958.26
2016-08-09T07:09:22.254Z,958.33
2016-08-09T07:10:39.532Z,958.37
2016-08-09T07:11:32.979Z,958.49
2016-08-09T07:12:36.372Z,958.54
2016-08-09T07:13:40.056Z,958.57
2016-08-09T07:14:34.138Z,958.60
2016-08-09T07:15:31.545Z,958.57
2016-08-09T07:16:24.311Z,958.57
2016-08-09T07:17:32.643Z,958.56
2016-08-09T07:19:19.799Z,958.49
2016-08-09T07:20:31.900Z,958.53
2016-08-09T07:21:39.049Z,958.51
2016-08-09T07:22:22.774Z,958.55
2016-08-09T07:23:37.508Z,958.54
2016-08-09T07:24:30.069Z,958.52
2016-08-09T07:25:38.303Z,958.53
2016-08-09T07:26:25.330Z,958.52
2016-08-09T07:27:31.395Z,958.54
2016-08-09T07:28:37.969Z,958.53
2016-08-09T07:29:21.400Z,958.56
2016-08-09T07:30:29.926Z,958.59
2016-08-09T07:31:12.766Z,958.63
2016-08-09T07:32:36.863Z,958.64
2016-08-09T07:33:38.827Z,958.67
2016-08-09T07:34:34.940Z,958.67
2016-08-09T07:35:21.148Z,958.70
2016-08-09T07:36:35.634Z,958.70
2016-08-09T07:37:38.505Z,958.75
2016-08-09T07:38:12.717Z,958.74
2016-08-09T07:39:43.560Z,958.81
2016-08-09T07:40:38.330Z,958.76
2016-08-09T07:41:23.244Z,958.75
2016-08-09T07:42:19.567Z,958.82
2016-08-09T07:43:36.422Z,958.80
2016-08-09T07:44:25.603Z,958.84
2016-08-09T07:45:38.555Z,958.82
2016-08-09T07:46:33.791Z,958.85
2016-08-09T07:47:14.663Z,958.82
2016-08-09T07:48:33.414Z,958.82
2016-08-09T07:49:43.034Z,958.82
2016-08-09T07:50:20.061Z,958.86
2016-08-09T07:51:31.562Z,958.83
2016-08-09T07:52:36.916Z,958.81
2016-08-09T07:53:47.437Z,958.85
2016-08-09T07:54:33.188Z,958.85
2016-08-09T07:55:23.992Z,958.84
2016-08-09T07:56:13.289Z,958.80
2016-08-09T07:57:33.040Z,958.81
2016-08-09T07:58:44.660Z,958.84
2016-08-09T07:59:33.701Z,958.82
2016-08-09T08:00:27.566Z,958.80
2016-08-09T08:01:28.238Z,958.81
2016-08-09T08:02:37.690Z,958.79
2016-08-09T08:04:27.118Z,958.75
2016-08-09T08:05:19.033Z,958.77
2016-08-09T08:06:18.958Z,958.73
2016-08-09T08:07:38.757Z,958.78
2016-08-09T08:08:20.171Z,958.82
2016-08-09T08:09:36.639Z,958.81
2016-08-09T08:10:38.175Z,958.79
2016-08-09T08:11:23.038Z,958.84
2016-08-09T08:12:14.889Z,958.84
2016-08-09T08:13:32.126Z,958.83
2016-08-09T08:14:32.521Z,958.83
2016-08-09T08:15:22.048Z,958.85
2016-08-09T08:16:30.529Z,958.82
2016-08-09T08:17:34.687Z,958.76
2016-08-09T08:19:13.279Z,958.77
2016-08-09T08:20:37.849Z,958.79
2016-08-09T08:21:13.164Z,958.75
2016-08-09T08:22:11.663Z,958.75
2016-08-09T08:23:38.417Z,958.73
2016-08-09T08:24:25.757Z,958.74
2016-08-09T08:25:10.985Z,958.72
2016-08-09T08:26:32.489Z,958.71
2016-08-09T08:27:30.525Z,958.64
2016-08-09T08:28:32.458Z,958.62
2016-08-09T08:29:21.062Z,958.59
2016-08-09T08:30:31.391Z,958.58
2016-08-09T08:31:21.902Z,958.59
2016-08-09T08:32:43.920Z,958.55
2016-08-09T08:33:19.226Z,958.53
2016-08-09T08:34:29.399Z,958.44
2016-08-09T08:35:13.827Z,958.48
2016-08-09T08:36:39.648Z,958.53
2016-08-09T08:37:38.433Z,958.54
2016-08-09T08:38:19.795Z,958.53
2016-08-09T08:39:20.154Z,958.57
2016-08-09T08:40:12.755Z,958.57
2016-08-09T08:41:40.109Z,958.59
2016-08-09T08:42:39.009Z,958.56
2016-08-09T08:43:14.347Z,958.55
2016-08-09T08:44:37.138Z,958.60
2016-08-09T08:45:25.877Z,958.65
2016-08-09T08:46:38.496Z,958.67
2016-08-09T08:47:25.266Z,958.62
2016-08-09T08:48:30.387Z,958.66
2016-08-09T08:49:36.456Z,958.71
2016-08-09T08:50:31.035Z,958.71
2016-08-09T08:51:27.177Z,958.73
2016-08-09T08:52:31.099Z,958.75
2016-08-09T08:53:14.399Z,958.76
2016-08-09T08:54:42.491Z,958.76
2016-08-09T08:55:27.182Z,958.76
2016-08-09T08:56:30.950Z,958.77
2016-08-09T08:57:28.403Z,958.72
2016-08-09T08:58:13.276Z,958.74
2016-08-09T08:59:18.790Z,958.74
2016-08-09T09:00:25.069Z,958.74
2016-08-09T09:01:31.979Z,958.73
2016-08-09T09:02:20.666Z,958.78
2016-08-09T09:03:36.546Z,958.81
2016-08-09T09:04:29.011Z,958.78
2016-08-09T09:05:27.863Z,958.81
2016-08-09T09:06:14.729Z,958.76
2016-08-09T09:07:43.972Z,958.78
2016-08-09T09:08:29.991Z,958.74
2016-08-09T09:09:25.782Z,958.80
2016-08-09T09:10:33.983Z,958.77
2016-08-09T09:11:28.707Z,958.75
2016-08-09T09:12:34.195Z,958.80
2016-08-09T09:13:33.929Z,958.82
2016-08-09T09:14:31.511Z,958.88
2016-08-09T09:15:24.958Z,958.90
2016-08-09T09:16:26.610Z,958.89
2016-08-09T09:17:42.454Z,958.92
2016-08-09T09:18:29.102Z,958.93
2016-08-09T09:19:45.107Z,958.86
2016-08-09T09:20:33.103Z,958.85
2016-08-09T09:21:30.082Z,958.85
2016-08-09T09:22:33.089Z,958.84
2016-08-09T09:23:37.984Z,958.84
2016-08-09T09:24:34.220Z,958.86
2016-08-09T09:25:14.071Z,958.89
2016-08-09T09:26:29.932Z,958.86
2016-08-09T09:27:13.286Z,958.89
2016-08-09T09:28:21.048Z,958.89
2016-08-09T09:29:36.238Z,958.94
2016-08-09T09:30:41.391Z,958.93
2016-08-09T09:31:35.790Z,958.93
2016-08-09T09:32:29.883Z,958.87
2016-08-09T09:33:25.770Z,958.93
2016-08-09T09:34:24.647Z,958.92
2016-08-09T09:35:27.169Z,958.91
2016-08-09T09:36:32.034Z,958.89
2016-08-09T09:37:12.187Z,958.86
2016-08-09T09:38:42.932Z,958.87
2016-08-09T09:39:32.342Z,958.90
2016-08-09T09:40:26.613Z,958.89
2016-08-09T09:41:23.766Z,958.88
2016-08-09T09:42:19.953Z,958.87
2016-08-09T09:43:13.100Z,958.86
2016-08-09T09:44:31.099Z,958.84
2016-08-09T09:45:33.385Z,958.86
2016-08-09T09:46:21.931Z,958.87
2016-08-09T09:47:26.831Z,958.89
2016-08-09T09:48:23.707Z,958.87
2016-08-09T09:49:38.200Z,958.87
2016-08-09T09:50:38.331Z,958.88
2016-08-09T09:51:19.017Z,958.89
2016-08-09T09:52:37.710Z,958.89
2016-08-09T09:53:43.935Z,958.91
2016-08-09T09:54:36.318Z,958.90
2016-08-09T09:55:25.192Z,958.94
2016-08-09T09:56:21.563Z,958.90
2016-08-09T09:57:41.904Z,958.90
2016-08-09T09:58:13.929Z,958.90
2016-08-09T09:59:22.393Z,958.91
2016-08-09T10:00:18.470Z,958.93
2016-08-09T10:01:30.926Z,958.92
2016-08-09T10:02:30.533Z,958.94
2016-08-09T10:03:38.153Z,958.93
2016-08-09T10:04:38.340Z,958.97
2016-08-09T10:05:11.796Z,958.99
2016-08-09T10:06:23.400Z,958.94
2016-08-09T10:07:33.592Z,958.92
2016-08-09T10:08:38.808Z,958.95
2016-08-09T10:09:18.756Z,958.90
2016-08-09T10:10:30.399Z,958.90
2016-08-09T10:11:36.414Z,958.89
2016-08-09T10:12:32.962Z,958.89
2016-08-09T10:13:30.103Z,958.83
2016-08-09T10:14:33.696Z,958.84
2016-08-09T10:15:22.662Z,958.84
2016-08-09T10:16:30.131Z,958.86
2016-08-09T10:17:27.456Z,958.88
2016-08-09T10:18:32.726Z,958.86
2016-08-09T10:20:36.632Z,958.88
2016-08-09T10:21:29.218Z,958.85
2016-08-09T10:22:27.681Z,958.83
2016-08-09T10:23:24.134Z,958.80
2016-08-09T10:24:38.373Z,958.86
2016-08-09T10:25:35.479Z,958.87
2016-08-09T10:26:31.730Z,958.87
2016-08-09T10:27:27.426Z,958.86
2016-08-09T10:28:32.712Z,958.87
2016-08-09T10:29:27.403Z,958.87
2016-08-09T10:30:25.730Z,958.85
2016-08-09T10:31:35.084Z,958.85
2016-08-09T10:32:32.363Z,958.92
2016-08-09T10:33:37.583Z,958.86
2016-08-09T10:34:40.902Z,958.87
2016-08-09T10:35:48.481Z,958.85
2016-08-09T10:36:21.519Z,958.85
2016-08-09T10:37:30.402Z,958.83
2016-08-09T10:38:23.138Z,958.80
2016-08-09T10:39:23.074Z,958.75
2016-08-09T10:40:37.536Z,958.77
2016-08-09T10:41:30.344Z,958.72
2016-08-09T10:42:39.508Z,958.67
2016-08-09T10:43:33.718Z,958.69
2016-08-09T10:44:12.986Z,958.63
2016-08-09T10:45:12.767Z,958.61
2016-08-09T10:46:14.936Z,958.66
2016-08-09T10:47:41.407Z,958.64
2016-08-09T10:48:39.135Z,958.61
2016-08-09T10:49:47.699Z,958.62
2016-08-09T10:50:32.289Z,958.62
2016-08-09T10:51:21.506Z,958.62
2016-08-09T10:52:33.041Z,958.56
2016-08-09T10:53:37.804Z,958.61
2016-08-09T10:54:12.898Z,958.62
2016-08-09T10:55:12.995Z,958.37
2016-08-09T10:56:14.595Z,958.58
2016-08-09T10:57:40.130Z,958.61
2016-08-09T10:58:38.312Z,958.54
2016-08-09T10:59:12.072Z,958.53
2016-08-09T11:00:31.731Z,958.50
2016-08-09T11:01:36.858Z,958.43
2016-08-09T11:02:34.860Z,958.46
2016-08-09T11:03:29.796Z,958.44
2016-08-09T11:04:32.056Z,958.41
2016-08-09T11:05:43.927Z,958.44
2016-08-09T11:06:31.124Z,958.39
2016-08-09T11:07:23.914Z,958.36
2016-08-09T11:08:23.090Z,958.33
2016-08-09T11:09:35.877Z,958.33
2016-08-09T11:10:38.347Z,958.25
2016-08-09T11:11:32.037Z,958.31
2016-08-09T11:12:41.879Z,958.29
2016-08-09T11:13:34.976Z,958.33
2016-08-09T11:14:32.900Z,958.32
2016-08-09T11:15:33.904Z,958.35
2016-08-09T11:16:33.429Z,958.35
2016-08-09T11:17:31.887Z,958.37
2016-08-09T11:18:35.925Z,958.37
2016-08-09T11:19:34.242Z,958.31
2016-08-09T11:20:27.820Z,958.37
2016-08-09T11:21:27.252Z,958.29
2016-08-09T11:22:20.255Z,958.33
2016-08-09T11:23:37.939Z,958.30
2016-08-09T11:24:30.733Z,958.30
2016-08-09T11:25:32.653Z,958.31
2016-08-09T11:26:29.942Z,958.31
2016-08-09T11:27:31.957Z,958.31
2016-08-09T11:28:19.068Z,958.36
2016-08-09T11:29:19.762Z,958.32
2016-08-09T11:30:26.364Z,958.33
2016-08-09T11:31:40.648Z,958.38
2016-08-09T11:32:26.936Z,958.38
2016-08-09T11:33:36.996Z,958.38
2016-08-09T11:34:38.371Z,958.41
2016-08-09T11:35:32.616Z,958.43
2016-08-09T11:36:26.150Z,958.40
2016-08-09T11:37:39.845Z,958.44
2016-08-09T11:38:32.103Z,958.43
2016-08-09T11:39:44.456Z,958.43
2016-08-09T11:40:30.855Z,958.47
2016-08-09T11:41:26.598Z,958.46
2016-08-09T11:42:33.878Z,958.50
2016-08-09T11:43:12.699Z,958.47
2016-08-09T11:44:18.338Z,958.45
2016-08-09T11:45:18.336Z,958.48
2016-08-09T11:46:27.034Z,958.43
2016-08-09T11:47:29.260Z,958.49
2016-08-09T11:48:43.993Z,958.47
2016-08-09T11:49:14.586Z,958.50
2016-08-09T11:50:13.657Z,958.47
2016-08-09T11:51:31.808Z,958.46
2016-08-09T11:52:12.114Z,958.51
2016-08-09T11:53:35.078Z,958.53
2016-08-09T11:54:37.922Z,958.58
2016-08-09T11:55:29.679Z,958.59
2016-08-09T11:56:40.088Z,958.65
2016-08-09T11:57:29.987Z,958.63
2016-08-09T11:58:37.662Z,958.63
2016-08-09T11:59:38.986Z,958.61
2016-08-09T12:00:25.538Z,958.65
2016-08-09T12:01:13.983Z,958.63
2016-08-09T12:02:36.806Z,958.62
2016-08-09T12:03:42.643Z,958.67
2016-08-09T12:04:43.044Z,958.63
2016-08-09T12:05:24.426Z,958.64
2016-08-09T12:06:39.837Z,958.65
2016-08-09T12:07:50.245Z,958.65
2016-08-09T12:08:31.167Z,958.61
2016-08-09T12:09:29.673Z,958.58
2016-08-09T12:10:30.782Z,958.55
2016-08-09T12:11:11.416Z,958.58
2016-08-09T12:12:32.122Z,958.56
2016-08-09T12:13:37.086Z,958.56
2016-08-09T12:14:36.718Z,958.58
2016-08-09T12:15:27.090Z,958.55
2016-08-09T12:16:39.138Z,958.53
2016-08-09T12:17:28.661Z,958.54
2016-08-09T12:18:23.122Z,958.52
2016-08-09T12:20:29.873Z,958.53
2016-08-09T12:21:40.314Z,958.49
2016-08-09T12:22:34.714Z,958.48
2016-08-09T12:23:33.657Z,958.51
2016-08-09T12:24:43.844Z,958.47
2016-08-09T12:25:26.587Z,958.46
2016-08-09T12:26:30.988Z,958.50
2016-08-09T12:27:27.988Z,958.42
2016-08-09T12:28:33.506Z,958.44
2016-08-09T12:29:36.820Z,958.46
2016-08-09T12:30:39.407Z,958.46
2016-08-09T12:31:25.465Z,958.48
2016-08-09T12:32:29.216Z,958.44
2016-08-09T12:33:33.065Z,958.46
2016-08-09T12:34:32.370Z,958.48
2016-08-09T12:35:24.999Z,958.44
2016-08-09T12:36:36.559Z,958.39
2016-08-09T12:37:38.964Z,958.47
2016-08-09T12:38:25.958Z,958.43
2016-08-09T12:39:37.528Z,958.49
2016-08-09T12:40:30.932Z,958.46